Time;durP1;ratioP1;P1;durP2;ratioP2;P2;SDS_P1;SDS_P2;PMS_P1;PMS_P2;Temp;Humidity;BMP_temperature;BMP_pressure;BME280_temperature;BME280_humidity;BME280_pressure;Samples;Min_cycle;Max_cycle;Signal;HPM_P1;HPM_P2
2023/11/29 00:01:10;;;;;;;6.50;2.80;;;;;;;-147.86;100.00;51537.57;105881;1257;72598;-43
2023/11/29 00:03:39;;;;;;;7.60;2.30;;;;;;;-147.86;100.00;51576.41;105873;1259;61124;-43
2023/11/29 00:06:06;;;;;;;9.40;2.40;;;;;;;-147.86;100.00;51593.68;105885;1255;60402;-43
2023/11/29 00:08:33;;;;;;;9.20;2.40;;;;;;;-147.86;100.00;51613.30;105876;1258;73792;-43
2023/11/29 00:11:02;;;;;;;11.80;3.40;;;;;;;-147.86;100.00;51646.26;105928;1256;65363;-43
2023/11/29 00:13:29;;;;;;;9.30;2.40;;;;;;;-147.86;100.00;51670.59;105818;1254;72723;-43
2023/11/29 00:15:56;;;;;;;8.60;2.40;;;;;;;-147.86;100.00;51700.81;105862;1257;61031;-43
2023/11/29 00:18:23;;;;;;;7.30;2.60;;;;;;;-147.86;100.00;51709.05;105920;1254;60470;-43
2023/11/29 00:20:52;;;;;;;10.70;2.70;;;;;;;-147.86;100.00;51746.73;105884;1257;72846;-43
2023/11/29 00:23:22;;;;;;;13.40;2.60;;;;;;;-147.86;100.00;51780.08;105823;1257;65346;-43
2023/11/29 00:25:51;;;;;;;9.10;2.90;;;;;;;-147.86;100.00;51782.43;105903;1257;71613;-43
2023/11/29 00:28:18;;;;;;;6.20;2.50;;;;;;;-147.86;100.00;51804.80;105851;1257;60429;-43
2023/11/29 00:30:44;;;;;;;8.30;2.80;;;;;;;-147.86;100.00;51812.65;105872;1258;60435;-43
2023/11/29 00:33:11;;;;;;;7.30;2.50;;;;;;;-147.86;100.00;51829.52;105924;1253;73780;-43
2023/11/29 00:35:38;;;;;;;4.20;2.10;;;;;;;-147.86;100.00;51848.76;105883;1257;65298;-43
2023/11/29 00:38:05;;;;;;;6.10;2.20;;;;;;;-147.86;100.00;51875.83;105904;1254;72501;-44
2023/11/29 00:40:32;;;;;;;6.60;2.30;;;;;;;-147.86;100.00;51904.09;105833;1258;61742;-43
2023/11/29 00:43:01;;;;;;;8.90;2.10;;;;;;;-147.86;100.00;51913.11;105873;1253;60518;-43
2023/11/29 00:45:37;;;;;;;8.80;2.50;;;;;;;-147.86;100.00;51953.93;105807;1256;73822;-43
2023/11/29 00:48:03;;;;;;;8.50;2.90;;;;;;;-147.86;100.00;51955.89;105851;1257;65356;-44
2023/11/29 00:50:30;;;;;;;5.90;2.40;;;;;;;-147.86;100.00;51998.27;105868;1254;72606;-43
2023/11/29 00:52:58;;;;;;;7.00;2.50;;;;;;;-147.86;100.00;52017.89;105873;1258;60392;-43
2023/11/29 00:55:24;;;;;;;14.80;2.70;;;;;;;-147.86;100.00;52029.67;105898;1257;60741;-44
2023/11/29 00:58:01;;;;;;;7.70;2.30;;;;;;;-147.86;100.00;52066.56;105886;1257;73686;-44
2023/11/29 01:00:30;;;;;;;6.60;2.10;;;;;;;-147.86;100.00;52092.46;105892;1257;65509;-44
2023/11/29 01:02:57;;;;;;;10.80;2.10;;;;;;;-147.86;100.00;52104.24;105837;1252;71090;-43
2023/11/29 01:05:28;;;;;;;7.30;2.70;;;;;;;-147.86;100.00;52142.70;105850;1257;60482;-44
2023/11/29 01:07:57;;;;;;;6.60;2.30;;;;;;;-147.86;100.00;52148.98;105696;1254;60493;-43
2023/11/29 01:10:26;;;;;;;6.70;2.40;;;;;;;-147.86;100.00;52174.88;105892;1257;73717;-43
2023/11/29 01:12:53;;;;;;;4.10;2.00;;;;;;;-147.86;100.00;52190.98;105855;1257;65601;-44
2023/11/29 01:15:20;;;;;;;6.50;2.00;;;;;;;-147.86;100.00;52228.26;105894;1254;72647;-44
2023/11/29 01:17:47;;;;;;;6.50;2.20;;;;;;;-147.86;100.00;52239.24;105890;1258;62088;-44
2023/11/29 01:20:14;;;;;;;11.40;2.40;;;;;;;-147.86;100.00;52265.54;105872;1254;60546;-44
2023/11/29 01:22:41;;;;;;;7.40;2.40;;;;;;;-147.86;100.00;52282.42;105900;1254;73830;-44
2023/11/29 01:25:09;;;;;;;8.10;2.50;;;;;;;-147.86;100.00;52302.43;105886;1258;65258;-45
2023/11/29 01:27:39;;;;;;;12.90;3.10;;;;;;;-147.86;100.00;52326.77;105940;1257;72528;-44
2023/11/29 01:30:06;;;;;;;6.50;1.80;;;;;;;-147.86;100.00;52318.52;105846;1256;61131;-44
2023/11/29 01:32:34;;;;;;;7.30;2.20;;;;;;;-147.86;100.00;52333.84;105951;1252;60456;-45
2023/11/29 01:35:01;;;;;;;9.20;2.10;;;;;;;-147.86;100.00;52364.45;105887;1257;73725;-44
2023/11/29 01:37:28;;;;;;;8.20;1.90;;;;;;;-147.86;100.00;52388.78;105881;1256;64368;-44
2023/11/29 01:39:55;;;;;;;12.00;2.00;;;;;;;-147.86;100.00;52406.45;105870;1254;72620;-44
2023/11/29 01:42:22;;;;;;;8.50;2.50;;;;;;;-147.86;100.00;52423.32;105853;1258;60862;-44
2023/11/29 01:44:49;;;;;;;7.90;2.20;;;;;;;-147.86;100.00;52437.45;105678;1254;60576;-44
2023/11/29 01:47:23;;;;;;;6.80;1.90;;;;;;;-147.86;100.00;52456.68;105887;1256;73698;-44
2023/11/29 01:49:52;;;;;;;6.10;1.90;;;;;;;-147.86;100.00;52479.05;105724;1254;65525;-44
2023/11/29 01:52:19;;;;;;;6.70;1.80;;;;;;;-147.86;100.00;52500.25;105849;1257;72600;-44
2023/11/29 01:54:46;;;;;;;4.40;2.50;;;;;;;-147.86;100.00;52505.74;105876;1255;61638;-44
2023/11/29 01:57:14;;;;;;;5.70;2.40;;;;;;;-147.86;100.00;52527.73;105921;1254;60400;-44
2023/11/29 01:59:40;;;;;;;5.50;1.80;;;;;;;-147.86;100.00;52545.78;105691;1254;72481;-44
2023/11/29 02:02:09;;;;;;;3.30;1.90;;;;;;;-147.86;100.00;52562.66;105874;1254;65589;-44
2023/11/29 02:04:38;;;;;;;6.90;1.60;;;;;;;-147.86;100.00;52574.04;105867;1253;72560;-44
2023/11/29 02:07:06;;;;;;;6.90;2.00;;;;;;;-147.86;100.00;52588.56;105869;1258;60426;-44
2023/11/29 02:09:36;;;;;;;5.20;1.90;;;;;;;-147.86;100.00;52614.86;105734;1257;60489;-44
2023/11/29 02:12:03;;;;;;;7.10;1.90;;;;;;;-147.86;100.00;52624.68;105931;1257;73736;-44
2023/11/29 02:14:30;;;;;;;4.30;1.70;;;;;;;-147.86;100.00;52644.30;105838;1257;65428;-44
2023/11/29 02:16:57;;;;;;;7.40;1.40;;;;;;;-147.86;100.00;52665.89;105654;1254;72738;-45
2023/11/29 02:19:24;;;;;;;5.60;1.50;;;;;;;-147.86;100.00;52674.52;105824;1255;62031;-44
2023/11/29 02:21:51;;;;;;;5.50;1.50;;;;;;;-147.86;100.00;52685.51;105672;1253;60508;-44
2023/11/29 02:24:20;;;;;;;7.90;1.40;;;;;;;-147.86;100.00;52691.40;105841;1257;72696;-44
2023/11/29 02:26:47;;;;;;;6.70;1.80;;;;;;;-147.86;100.00;52698.86;105712;1253;65511;-44
2023/11/29 02:29:15;;;;;;;4.10;1.30;;;;;;;-147.86;100.00;52721.63;105916;1257;71084;-44
2023/11/29 02:31:42;;;;;;;8.30;2.40;;;;;;;-147.86;100.00;52735.36;105941;1255;61972;-44
2023/11/29 02:34:09;;;;;;;5.90;1.40;;;;;;;-147.86;100.00;52753.81;105921;1254;60470;-45
2023/11/29 02:36:36;;;;;;;8.20;1.40;;;;;;;-147.86;100.00;52770.30;105871;1254;73900;-45
2023/11/29 02:39:03;;;;;;;9.40;1.80;;;;;;;-147.86;100.00;52764.02;105906;1254;65426;-44
2023/11/29 02:41:31;;;;;;;5.30;1.40;;;;;;;-147.86;100.00;52775.01;105878;1257;71521;-45
2023/11/29 02:44:00;;;;;;;3.70;1.40;;;;;;;-147.86;100.00;52788.75;105819;1254;61914;-45
2023/11/29 02:46:28;;;;;;;10.30;2.70;;;;;;;-147.86;100.00;52818.57;105909;1252;60527;-45
2023/11/29 02:48:57;;;;;;;6.30;2.30;;;;;;;-147.86;100.00;52822.11;105861;1254;73941;-44
2023/11/29 02:51:24;;;;;;;10.80;2.40;;;;;;;-147.86;100.00;52835.46;105907;1254;65348;-45
2023/11/29 02:53:53;;;;;;;8.10;2.30;;;;;;;-147.86;100.00;52857.05;105868;1257;71313;-45
2023/11/29 02:56:20;;;;;;;10.50;2.70;;;;;;;-147.86;100.00;52879.43;105875;1254;60509;-44
2023/11/29 02:58:49;;;;;;;5.50;2.30;;;;;;;-147.86;100.00;52890.02;105886;1254;60461;-45
2023/11/29 03:01:18;;;;;;;8.50;2.40;;;;;;;-147.86;100.00;52912.39;105658;1257;73674;-44
2023/11/29 03:03:46;;;;;;;9.90;3.20;;;;;;;-147.86;100.00;52910.04;105926;1256;65442;-44
2023/11/29 03:06:15;;;;;;;6.90;2.20;;;;;;;-147.86;100.00;52937.13;105856;1257;72332;-45
2023/11/29 03:08:42;;;;;;;4.30;2.30;;;;;;;-147.86;100.00;52958.71;105900;1256;60842;-45
2023/11/29 03:11:09;;;;;;;4.30;1.70;;;;;;;-147.86;100.00;52973.63;105809;1253;60504;-44
2023/11/29 03:13:36;;;;;;;8.30;2.10;;;;;;;-147.86;100.00;52977.16;105916;1257;73688;-45
2023/11/29 03:16:05;;;;;;;6.50;2.30;;;;;;;-147.86;100.00;52993.65;105882;1257;65519;-46
2023/11/29 03:18:32;;;;;;;6.70;2.60;;;;;;;-147.86;100.00;53011.31;105888;1254;72676;-45
2023/11/29 03:20:59;;;;;;;7.00;2.10;;;;;;;-147.86;100.00;53025.05;105825;1253;62014;-45
2023/11/29 03:23:27;;;;;;;4.20;2.00;;;;;;;-147.86;100.00;53048.61;105865;1254;60538;-45
2023/11/29 03:25:56;;;;;;;6.50;2.30;;;;;;;-147.86;100.00;53060.39;105910;1257;73712;-46
2023/11/29 03:28:23;;;;;;;6.00;2.30;;;;;;;-147.86;100.00;53089.82;105842;1254;65526;-45
2023/11/29 03:30:49;;;;;;;9.50;2.80;;;;;;;-147.86;100.00;53093.36;105838;1256;72569;-45
2023/11/29 03:33:16;;;;;;;9.60;2.50;;;;;;;-147.86;100.00;53103.56;105888;1257;61952;-45
2023/11/29 03:35:43;;;;;;;8.30;2.40;;;;;;;-147.86;100.00;53118.48;105846;1254;60382;-45
2023/11/29 03:38:11;;;;;;;6.10;2.30;;;;;;;-147.86;100.00;53128.69;105875;1254;73851;-45
2023/11/29 03:40:38;;;;;;;5.70;2.20;;;;;;;-147.86;100.00;53150.28;105890;1254;65501;-46
2023/11/29 03:43:10;;;;;;;3.00;1.80;;;;;;;-147.86;100.00;53168.73;105874;1254;73053;-47
2023/11/29 03:45:37;;;;;;;8.00;2.60;;;;;;;-147.86;100.00;53189.93;105834;1257;61973;-47
2023/11/29 03:48:04;;;;;;;6.30;2.00;;;;;;;-147.86;100.00;53174.23;105829;1253;60392;-47
2023/11/29 03:50:31;;;;;;;5.50;2.50;;;;;;;-147.86;100.00;53215.45;105871;1256;73964;-48
2023/11/29 03:52:58;;;;;;;6.90;2.40;;;;;;;-147.86;100.00;53226.04;105841;1256;64499;-48
2023/11/29 03:55:25;;;;;;;5.90;2.40;;;;;;;-147.86;100.00;53248.81;105861;1253;72678;-48
2023/11/29 03:57:52;;;;;;;5.40;2.70;;;;;;;-147.86;100.00;53248.43;105865;1252;61800;-47
2023/11/29 04:00:19;;;;;;;5.50;2.10;;;;;;;-147.86;100.00;53282.57;105860;1253;60399;-46
2023/11/29 04:02:45;;;;;;;10.00;2.80;;;;;;;-147.86;100.00;53276.69;105838;1257;72692;-47
2023/11/29 04:05:13;;;;;;;4.10;2.20;;;;;;;-147.86;100.00;53297.10;105867;1257;65479;-47
2023/11/29 04:07:41;;;;;;;6.30;2.00;;;;;;;-147.86;100.00;53303.38;105895;1258;72516;-46
2023/11/29 04:10:08;;;;;;;8.40;2.50;;;;;;;-147.86;100.00;53312.41;105901;1255;62000;-47
2023/11/29 04:12:38;;;;;;;11.60;2.50;;;;;;;-147.86;100.00;53332.43;105677;1253;60405;-46
2023/11/29 04:15:06;;;;;;;9.60;2.40;;;;;;;-147.86;100.00;53345.78;105718;1257;73540;-46
2023/11/29 04:17:33;;;;;;;6.80;2.40;;;;;;;-147.86;100.00;53353.63;105897;1257;65530;-46
2023/11/29 04:20:05;;;;;;;6.70;2.00;;;;;;;-147.86;100.00;53389.36;105896;1254;72704;-47
2023/11/29 04:22:37;;;;;;;6.70;2.10;;;;;;;-147.86;100.00;53399.18;105830;1257;62805;-46
2023/11/29 04:25:08;;;;;;;5.40;2.20;;;;;;;-147.86;100.00;53401.93;105871;1254;60534;-45
2023/11/29 04:27:37;;;;;;;5.30;1.80;;;;;;;-147.86;100.00;53401.93;105816;1255;73801;-46
2023/11/29 04:30:05;;;;;;;9.30;2.50;;;;;;;-147.86;100.00;53409.38;105898;1257;65563;-46
2023/11/29 04:32:32;;;;;;;5.60;1.60;;;;;;;-147.86;100.00;53436.07;105735;1253;72483;-47
2023/11/29 04:35:01;;;;;;;5.70;2.10;;;;;;;-147.86;100.00;53450.21;105830;1252;61900;-47
2023/11/29 04:37:28;;;;;;;8.60;2.00;;;;;;;-147.86;100.00;53475.73;105885;1254;60457;-46
2023/11/29 04:39:55;;;;;;;6.20;1.80;;;;;;;-147.86;100.00;53456.10;105897;1255;73958;-46
2023/11/29 04:42:22;;;;;;;4.50;1.80;;;;;;;-147.86;100.00;53475.34;105869;1252;64537;-46
2023/11/29 04:44:49;;;;;;;7.60;1.90;;;;;;;-147.86;100.00;53494.57;105843;1257;72683;-45
2023/11/29 04:47:16;;;;;;;4.90;1.70;;;;;;;-147.86;100.00;53501.25;105879;1252;61830;-45
2023/11/29 04:49:43;;;;;;;4.20;1.80;;;;;;;-147.86;100.00;53521.66;105975;1254;60537;-45
2023/11/29 04:52:09;;;;;;;4.20;2.00;;;;;;;-147.86;100.00;53529.13;105854;1257;74251;-45
2023/11/29 04:54:39;;;;;;;5.10;2.10;;;;;;;-147.86;100.00;53523.24;105855;1257;65546;-45
2023/11/29 04:57:05;;;;;;;4.30;1.80;;;;;;;-147.86;100.00;53531.48;105829;1254;72310;-45
2023/11/29 04:59:37;;;;;;;4.60;1.80;;;;;;;-147.86;100.00;53548.36;105871;1253;61919;-47
2023/11/29 05:02:04;;;;;;;3.00;1.80;;;;;;;-147.86;100.00;53557.79;105843;1253;60437;-46
2023/11/29 05:04:33;;;;;;;4.80;2.70;;;;;;;-147.86;100.00;53573.88;105845;1257;73856;-45
2023/11/29 05:07:00;;;;;;;7.20;1.90;;;;;;;-147.86;100.00;53563.67;105887;1254;65543;-46
2023/11/29 05:09:30;;;;;;;5.40;2.00;;;;;;;-147.86;100.00;53586.05;105906;1254;72698;-45
2023/11/29 05:11:59;;;;;;;3.40;1.80;;;;;;;-147.86;100.00;53602.93;105821;1256;61949;-45
2023/11/29 05:14:26;;;;;;;2.60;1.40;;;;;;;-147.86;100.00;53608.04;105876;1252;60417;-46
2023/11/29 05:16:53;;;;;;;4.00;1.70;;;;;;;-147.86;100.00;53611.18;105852;1256;73820;-46
2023/11/29 05:19:20;;;;;;;2.00;1.00;;;;;;;-147.86;100.00;53641.02;105883;1252;65538;-47
2023/11/29 05:21:50;;;;;;;2.70;0.90;;;;;;;-147.86;100.00;53633.16;105867;1257;72668;-47
2023/11/29 05:24:17;;;;;;;4.10;1.40;;;;;;;-147.86;100.00;53641.01;105832;1257;61910;-47
2023/11/29 05:26:44;;;;;;;3.70;1.50;;;;;;;-147.86;100.00;53650.83;105882;1253;60560;-46
2023/11/29 05:29:11;;;;;;;4.20;1.60;;;;;;;-147.86;100.00;53661.82;105887;1254;73677;-48
2023/11/29 05:31:38;;;;;;;2.30;1.30;;;;;;;-147.86;100.00;53655.93;105834;1253;64541;-47
2023/11/29 05:34:06;;;;;;;4.20;1.60;;;;;;;-147.86;100.00;53670.46;105872;1252;72764;-48
2023/11/29 05:36:32;;;;;;;4.40;1.20;;;;;;;-147.86;100.00;53684.60;105887;1252;61960;-48
2023/11/29 05:38:59;;;;;;;1.90;1.20;;;;;;;-147.86;100.00;53698.34;105624;1253;60396;-48
2023/11/29 05:41:26;;;;;;;2.60;1.00;;;;;;;-147.86;100.00;53690.49;105590;1254;73778;-47
2023/11/29 05:43:56;;;;;;;2.50;1.10;;;;;;;-147.86;100.00;53703.05;105677;1253;64118;-47
2023/11/29 05:46:24;;;;;;;1.40;0.80;;;;;;;-147.86;100.00;53711.29;105787;1257;71665;-46
2023/11/29 05:48:51;;;;;;;1.70;1.10;;;;;;;-147.86;100.00;53722.29;105882;1253;60478;-48
2023/11/29 05:51:18;;;;;;;2.90;1.40;;;;;;;-147.86;100.00;53729.35;105826;1253;60402;-47
2023/11/29 05:53:44;;;;;;;4.10;0.80;;;;;;;-147.86;100.00;53732.89;105871;1257;73793;-47
2023/11/29 05:56:14;;;;;;;1.10;0.50;;;;;;;-147.86;100.00;53751.73;105895;1256;65512;-46
2023/11/29 05:58:44;;;;;;;1.70;0.80;;;;;;;-147.86;100.00;53753.70;105858;1256;72654;-45
2023/11/29 06:01:11;;;;;;;3.40;0.80;;;;;;;-147.86;100.00;53754.09;105919;1257;61959;-45
2023/11/29 06:03:38;;;;;;;3.70;0.80;;;;;;;-147.86;100.00;53765.87;105874;1253;60395;-46
2023/11/29 06:06:05;;;;;;;2.20;0.70;;;;;;;-147.86;100.00;53765.87;105896;1257;73712;-45
2023/11/29 06:08:44;;;;;;;2.70;0.90;;;;;;;-147.86;100.00;53771.76;105724;1253;65336;-46
2023/11/29 06:11:14;;;;;;;1.60;0.60;;;;;;;-147.86;100.00;53789.81;105852;1253;72744;-46
2023/11/29 06:13:50;;;;;;;0.50;0.50;;;;;;;-147.86;100.00;53762.73;105881;1257;61969;-47
2023/11/29 06:16:17;;;;;;;0.70;0.60;;;;;;;-147.86;100.00;53788.25;105868;1253;60505;-45
2023/11/29 06:18:47;;;;;;;3.20;0.70;;;;;;;-147.86;100.00;53786.68;105858;1257;73947;-46
2023/11/29 06:21:16;;;;;;;1.20;0.40;;;;;;;-147.86;100.00;53795.71;105909;1257;65467;-46
2023/11/29 06:23:46;;;;;;;0.60;0.40;;;;;;;-147.86;100.00;53797.28;105839;1257;72660;-46
2023/11/29 06:26:15;;;;;;;1.40;0.50;;;;;;;-147.86;100.00;53804.34;105840;1252;61916;-47
2023/11/29 06:28:47;;;;;;;0.50;0.50;;;;;;;-147.86;100.00;53817.30;105887;1252;60461;-46
2023/11/29 06:31:19;;;;;;;1.40;0.50;;;;;;;-147.86;100.00;53805.13;105801;1254;73915;-46
2023/11/29 06:33:46;;;;;;;1.20;0.60;;;;;;;-147.86;100.00;53823.98;105914;1253;64710;-46
2023/11/29 06:36:15;;;;;;;1.20;0.50;;;;;;;-147.86;100.00;53809.05;105881;1254;72621;-46
2023/11/29 06:38:46;;;;;;;0.50;0.50;;;;;;;-147.86;100.00;53835.36;105831;1253;61739;-46
2023/11/29 06:41:15;;;;;;;1.20;0.40;;;;;;;-147.86;100.00;53823.59;105899;1253;60460;-46
2023/11/29 06:43:48;;;;;;;;;;;;;;;-147.86;100.00;53831.44;105877;1253;73804;-46
2023/11/29 06:46:21;;;;;;;0.50;0.50;;;;;;;-147.86;100.00;53827.12;105848;1257;65444;-48
2023/11/29 06:48:54;;;;;;;1.40;0.50;;;;;;;-147.86;100.00;53843.22;105876;1253;72652;-46
2023/11/29 06:51:21;;;;;;;0.80;0.30;;;;;;;-147.86;100.00;53830.65;105882;1257;61758;-46
2023/11/29 06:53:50;;;;;;;0.60;0.40;;;;;;;-147.86;100.00;53850.28;105865;1253;60458;-47
2023/11/29 06:56:20;;;;;;;0.40;0.20;;;;;;;-147.86;100.00;53854.99;105848;1256;73825;-47
2023/11/29 06:58:48;;;;;;;1.20;0.40;;;;;;;-147.86;100.00;53844.00;105860;1256;64648;-47
2023/11/29 07:01:15;;;;;;;1.10;0.20;;;;;;;-147.86;100.00;53860.49;105880;1254;72678;-46
2023/11/29 07:03:45;;;;;;;1.90;0.50;;;;;;;-147.86;100.00;53861.27;105880;1253;60755;-48
2023/11/29 07:06:24;;;;;;;0.30;0.30;;;;;;;-147.86;100.00;53863.63;105876;1253;60637;-47
2023/11/29 07:08:54;;;;;;;0.90;0.40;;;;;;;-147.86;100.00;53887.20;105931;1257;73505;-47
2023/11/29 07:11:22;;;;;;;0.50;0.50;;;;;;;-147.86;100.00;53862.46;105893;1253;65321;-47
2023/11/29 07:13:55;;;;;;;0.70;0.50;;;;;;;-147.86;100.00;53889.16;105857;1253;72783;-48
2023/11/29 07:16:28;;;;;;;0.90;0.40;;;;;;;-147.86;100.00;53891.12;105911;1253;60453;-47
2023/11/29 07:19:01;;;;;;;3.10;0.60;;;;;;;-147.86;100.00;53877.38;105916;1253;60430;-47
2023/11/29 07:21:35;;;;;;;0.50;0.50;;;;;;;-147.86;100.00;53878.95;105856;1257;73900;-48
2023/11/29 07:24:04;;;;;;;2.70;0.40;;;;;;;-147.86;100.00;53889.94;105931;1256;63522;-47
2023/11/29 07:26:35;;;;;;;1.10;0.30;;;;;;;-147.86;100.00;53909.18;105879;1253;71378;-48
2023/11/29 07:29:05;;;;;;;0.90;0.40;;;;;;;-147.86;100.00;53905.64;105906;1253;60484;-48
2023/11/29 07:31:34;;;;;;;0.60;0.40;;;;;;;-147.86;100.00;53908.00;105909;1253;60491;-51
2023/11/29 07:34:02;;;;;;;0.50;0.50;;;;;;;-147.86;100.00;53903.29;105903;1253;73842;-48
2023/11/29 07:36:31;;;;;;;1.00;0.60;;;;;;;-147.86;100.00;53914.68;105868;1257;64205;-49
2023/11/29 07:39:00;;;;;;;0.70;0.60;;;;;;;-147.86;100.00;53906.82;105877;1257;72603;-47
2023/11/29 07:41:35;;;;;;;1.50;0.70;;;;;;;-147.86;100.00;53918.99;105605;1253;356340;-47
2023/11/29 07:44:03;;;;;;;1.40;0.30;;;;;;;-147.86;100.00;53923.31;105835;1253;60518;-47
2023/11/29 07:47:30;;;;;;;0.80;0.40;;;;;;;-147.86;100.00;53321.79;102797;1293;599486;-46
2023/11/29 07:49:59;;;;;;;0.40;0.40;;;;;;;-147.86;100.00;54084.70;105128;1269;61750;-45
2023/11/29 07:52:26;;;;;;;1.00;0.60;;;;;;;-147.86;100.00;54065.84;105160;1263;60251;-46
2023/11/29 07:54:53;;;;;;;2.00;0.60;;;;;;;-147.86;100.00;54026.19;105206;1264;72293;-45
2023/11/29 07:57:20;;;;;;;0.30;0.30;;;;;;;-147.86;100.00;54028.94;105222;1269;65533;-45
2023/11/29 07:59:47;;;;;;;1.70;0.50;;;;;;;-147.86;100.00;54028.94;104960;1264;292956;-44
2023/11/29 08:02:14;;;;;;;3.40;0.40;;;;;;;-147.86;100.00;54016.76;105177;1266;61921;-44
2023/11/29 08:04:41;;;;;;;0.60;0.40;;;;;;;-147.86;100.00;54013.63;105232;1263;60164;-44
2023/11/29 08:07:08;;;;;;;3.20;0.40;;;;;;;-147.86;100.00;54006.55;105202;1262;72160;-45
2023/11/29 08:09:35;;;;;;;1.60;0.50;;;;;;;-147.86;100.00;54003.02;105295;1264;64423;-44
2023/11/29 08:12:03;;;;;;;2.30;0.60;;;;;;;-147.86;100.00;53995.96;105244;1263;72643;-44
2023/11/29 08:14:32;;;;;;;1.00;0.40;;;;;;;-147.86;100.00;53993.20;105231;1263;60849;-43
2023/11/29 08:16:59;;;;;;;1.40;0.50;;;;;;;-147.86;100.00;54003.41;105207;1264;60350;-45
2023/11/29 08:19:26;;;;;;;2.30;0.50;;;;;;;-147.86;100.00;54004.20;105668;1254;72820;-44
2023/11/29 08:21:53;;;;;;;2.10;0.60;;;;;;;-147.86;100.00;53999.88;105650;1260;65474;-44
2023/11/29 08:24:20;;;;;;;0.50;0.50;;;;;;;-147.86;100.00;53980.24;105630;1254;72500;-43
2023/11/29 08:26:47;;;;;;;1.00;0.60;;;;;;;-147.86;100.00;53999.49;105740;1260;61356;-44
2023/11/29 08:29:14;;;;;;;0.30;0.20;;;;;;;-147.86;100.00;53991.24;105668;1257;60488;-44
2023/11/29 08:31:42;;;;;;;0.80;0.40;;;;;;;-147.86;100.00;53988.10;105653;1257;73049;-45
2023/11/29 08:34:08;;;;;;;0.70;0.50;;;;;;;-147.86;100.00;53987.71;105653;1260;65278;-45
2023/11/29 08:36:36;;;;;;;3.40;0.50;;;;;;;-147.86;100.00;53979.46;105652;1257;72518;-45
2023/11/29 08:39:03;;;;;;;0.60;0.30;;;;;;;-147.86;100.00;53981.43;105702;1259;61913;-46
2023/11/29 08:41:30;;;;;;;1.40;0.40;;;;;;;-147.86;100.00;53964.93;105626;1260;59558;-45
2023/11/29 08:43:57;;;;;;;0.40;0.30;;;;;;;-147.86;100.00;53967.68;105656;1257;72977;-45
2023/11/29 08:46:25;;;;;;;2.30;0.50;;;;;;;-147.86;100.00;53977.89;105588;1260;65531;-45
2023/11/29 08:48:52;;;;;;;2.90;0.30;;;;;;;-147.86;100.00;53981.82;105554;1258;71156;-45
2023/11/29 08:51:20;;;;;;;7.80;0.70;;;;;;;-147.86;100.00;53989.67;105635;1260;61984;-44
2023/11/29 08:53:47;;;;;;;1.30;0.50;;;;;;;-147.86;100.00;53967.29;105614;1257;60163;-44
2023/11/29 08:56:17;;;;;;;2.70;0.90;;;;;;;-147.86;100.00;53981.03;105595;1260;74463;-44
2023/11/29 08:58:45;;;;;;;2.00;0.60;;;;;;;-147.86;100.00;53974.36;105623;1260;64046;-44
2023/11/29 09:01:18;;;;;;;7.90;0.70;;;;;;;-147.86;100.00;53963.76;105604;1257;72614;-45
2023/11/29 09:03:46;;;;;;;9.20;0.90;;;;;;;-147.86;100.00;53988.88;105529;1260;61764;-44
2023/11/29 09:06:15;;;;;;;3.10;0.80;;;;;;;-147.86;100.00;53969.64;105597;1261;59602;-45
2023/11/29 09:08:43;;;;;;;1.40;0.50;;;;;;;-147.86;100.00;53980.24;105549;1258;73038;-44
2023/11/29 09:11:16;;;;;;;1.70;0.70;;;;;;;-147.86;100.00;53981.81;105591;1256;66299;-44
2023/11/29 09:13:48;;;;;;;3.10;0.40;;;;;;;-147.86;100.00;53976.32;105591;1257;72482;-44
2023/11/29 09:16:18;;;;;;;1.90;0.50;;;;;;;-147.86;100.00;53977.89;105585;1260;61818;-44
2023/11/29 09:18:48;;;;;;;1.10;0.30;;;;;;;-147.86;100.00;53972.00;105491;1258;60136;-44
2023/11/29 09:21:21;;;;;;;1.10;0.50;;;;;;;-147.86;100.00;53976.32;105289;1257;71795;-44
2023/11/29 09:23:55;;;;;;;5.40;0.50;;;;;;;-147.86;100.00;53974.36;105600;1261;67054;-44
2023/11/29 09:26:28;;;;;;;0.80;0.60;;;;;;;-147.86;100.00;53975.14;105666;1261;72995;-44
2023/11/29 09:28:56;;;;;;;0.90;0.50;;;;;;;-147.86;100.00;53963.36;105589;1257;62715;-44
2023/11/29 09:31:26;;;;;;;0.40;0.40;;;;;;;-147.86;100.00;53974.36;105622;1257;61604;-45
2023/11/29 09:33:53;;;;;;;2.50;0.80;;;;;;;-147.86;100.00;53982.21;105635;1260;72678;-44
2023/11/29 09:36:20;;;;;;;6.80;1.00;;;;;;;-147.86;100.00;53959.04;105624;1260;65550;-44
2023/11/29 09:38:48;;;;;;;3.00;0.90;;;;;;;-147.86;100.00;53973.57;105634;1257;74168;-44
2023/11/29 09:41:16;;;;;;;1.80;0.60;;;;;;;-147.86;100.00;53959.83;105652;1260;61970;-44
2023/11/29 09:43:44;;;;;;;3.20;0.70;;;;;;;-147.86;100.00;53970.43;105604;1257;60807;-44
2023/11/29 09:46:12;;;;;;;5.40;0.60;;;;;;;-147.86;100.00;53964.94;105677;1257;72945;-44
2023/11/29 09:48:39;;;;;;;2.70;0.60;;;;;;;-147.86;100.00;53966.90;105625;1256;65537;-45
2023/11/29 09:51:07;;;;;;;1.10;0.50;;;;;;;-147.86;100.00;53973.96;105583;1257;72625;-44
2023/11/29 09:53:34;;;;;;;0.40;0.40;;;;;;;-147.86;100.00;53965.32;105545;1262;61965;-43
2023/11/29 09:56:03;;;;;;;0.30;0.30;;;;;;;-147.86;100.00;53976.71;105600;1257;61753;-44
2023/11/29 09:58:30;;;;;;;0.80;0.50;;;;;;;-147.86;100.00;53969.64;105471;1257;72853;-43
2023/11/29 10:00:57;;;;;;;1.20;0.50;;;;;;;-147.86;100.00;53979.07;105591;1260;65273;-43
2023/11/29 10:03:24;;;;;;;1.60;0.50;;;;;;;-147.86;100.00;53978.68;105588;1257;72648;-44
2023/11/29 10:05:51;;;;;;;0.70;0.70;;;;;;;-147.86;100.00;53941.38;105594;1257;60121;-44
2023/11/29 10:08:22;;;;;;;2.40;1.00;;;;;;;-147.86;100.00;53974.75;105595;1257;60283;-45
2023/11/29 10:10:52;;;;;;;0.90;0.50;;;;;;;-147.86;100.00;53966.89;105567;1257;72029;-45
2023/11/29 10:13:20;;;;;;;0.60;0.50;;;;;;;-147.86;100.00;53966.51;105586;1260;65443;-45
2023/11/29 10:15:48;;;;;;;0.80;0.60;;;;;;;-147.86;100.00;53938.23;105472;1262;71429;-44
2023/11/29 10:18:17;;;;;;;2.30;0.80;;;;;;;-147.86;100.00;53975.93;105618;1257;60600;-45
2023/11/29 10:20:49;;;;;;;1.60;0.60;;;;;;;-147.86;100.00;53956.69;105618;1260;59560;-44
2023/11/29 10:23:33;;;;;;;0.50;0.50;;;;;;;-147.86;100.00;53953.15;105579;1260;74076;-45
2023/11/29 10:26:01;;;;;;;1.00;0.70;;;;;;;-147.86;100.00;53958.26;105640;1257;64662;-44
2023/11/29 10:28:28;;;;;;;0.70;0.70;;;;;;;-147.86;100.00;53957.08;105634;1257;72645;-45
2023/11/29 10:30:55;;;;;;;0.50;0.50;;;;;;;-147.86;100.00;53948.83;105582;1260;63020;-45
2023/11/29 10:33:22;;;;;;;3.00;0.80;;;;;;;-147.86;100.00;53939.41;105685;1257;59679;-45
2023/11/29 10:35:49;;;;;;;1.20;0.70;;;;;;;-147.86;100.00;53933.13;105578;1257;72978;-45
2023/11/29 10:38:18;;;;;;;0.90;0.70;;;;;;;-147.86;100.00;53940.59;105612;1260;66499;-45
2023/11/29 10:40:45;;;;;;;1.40;0.70;;;;;;;-147.86;100.00;53932.34;105610;1258;71511;-44
2023/11/29 10:43:12;;;;;;;1.20;0.90;;;;;;;-147.86;100.00;53917.43;105660;1257;62848;-44
2023/11/29 10:45:41;;;;;;;1.60;1.20;;;;;;;-147.86;100.00;53928.81;105639;1257;60361;-45
2023/11/29 10:48:14;;;;;;;1.00;1.00;;;;;;;-147.86;100.00;53912.71;105608;1257;71016;-45
2023/11/29 10:50:41;;;;;;;1.20;1.10;;;;;;;-147.86;100.00;53930.77;105712;1260;65441;-45
2023/11/29 10:53:08;;;;;;;1.20;0.90;;;;;;;-147.86;100.00;53915.86;105572;1257;73220;-44
2023/11/29 10:55:38;;;;;;;1.80;1.00;;;;;;;-147.86;100.00;53922.92;105636;1256;61875;-45
2023/11/29 10:58:14;;;;;;;1.00;0.90;;;;;;;-147.86;100.00;53917.43;105359;1257;60063;-45
2023/11/29 11:00:44;;;;;;;1.70;1.40;;;;;;;-147.86;100.00;53897.79;105632;1257;72164;-45
2023/11/29 11:03:40;;;;;;;1.30;0.90;;;;;;;-147.86;100.00;53883.66;105645;1256;64468;-45
2023/11/29 11:06:21;;;;;;;;;;;;;;;-147.86;100.00;53868.74;105684;1257;73207;-44
2023/11/29 11:08:52;;;;;;;0.80;0.80;;;;;;;-147.86;100.00;53837.32;105674;1257;63553;-45